Time;durP1;ratioP1;P1;durP2;ratioP2;P2;SDS_P1;SDS_P2;PMS_P1;PMS_P2;Temp;Humidity;BMP_temperature;BMP_pressure;BME280_temperature;BME280_humidity;BME280_pressure;Samples;Min_cycle;Max_cycle;Signal;HPM_P1;HPM_P2
2021/05/02 00:03:35;;;;;;;;;;;7.10;99.90;;;6.07;100.00;94804.38;10406665;28;3076;-84
2021/05/02 00:08:39;;;;;;;;;;;8.10;99.90;;;6.08;100.00;94807.81;10393790;28;2544;-83
2021/05/02 00:13:41;;;;;;;;;;;7.10;99.90;;;6.09;100.00;94812.88;10382529;28;2402;-86
2021/05/02 00:18:46;;;;;;;;;;;8.60;99.90;;;6.12;100.00;94817.69;10393432;28;2398;-86
2021/05/02 00:23:58;;;;;;;;;;;7.10;99.90;;;6.14;100.00;94820.09;10366451;28;2271;-84
2021/05/02 00:29:01;;;;;;;;;;;7.30;99.90;;;6.10;100.00;94835.03;10387749;28;2142;-85
2021/05/02 00:34:03;;;;;;;;;;;7.20;99.90;;;6.12;100.00;94838.25;10396201;28;2479;-85
2021/05/02 00:39:09;;;;;;;;;;;8.30;99.90;;;6.08;100.00;94853.19;10376624;28;2425;-86
2021/05/02 00:44:28;;;;;;;;;;;8.60;99.90;;;6.11;100.00;94863.34;10382713;28;2312;-87
2021/05/02 00:49:34;;;;;;;;;;;8.30;99.90;;;6.09;100.00;94862.78;10370069;28;2663;-87
2021/05/02 00:54:37;;;;;;;;;;;8.80;99.90;;;6.06;100.00;94876.66;10376691;28;2283;-85
2021/05/02 00:59:39;;;;;;;;;;;8.40;99.90;;;5.96;100.00;94886.25;10398442;28;2379;-85
2021/05/02 01:04:44;;;;;;;;;;;8.60;99.90;;;5.90;100.00;94891.81;10375009;28;3560;-86
2021/05/02 01:09:46;;;;;;;;;;;8.40;99.90;;;5.88;100.00;94902.75;10391573;28;2705;-85
2021/05/02 01:14:48;;;;;;;;;;;8.60;99.90;;;5.81;100.00;94912.09;10375001;28;2402;-85
2021/05/02 01:19:53;;;;;;;;;;;8.70;99.90;;;5.73;100.00;94916.09;10370839;28;2165;-86
2021/05/02 01:24:55;;;;;;;;;;;8.30;99.90;;;5.74;100.00;94928.34;10378928;28;2394;-86
2021/05/02 01:29:57;;;;;;;;;;;8.30;99.90;;;5.64;100.00;94929.09;10400146;28;2238;-85
2021/05/02 01:34:59;;;;;;;;;;;7.50;99.90;;;5.52;100.00;94943.75;10407586;28;2483;-85
2021/05/02 01:40:04;;;;;;;;;;;6.60;99.90;;;5.41;100.00;94946.38;10395764;28;2453;-86
2021/05/02 01:45:06;;;;;;;;;;;8.10;99.90;;;5.34;100.00;94959.16;10400974;28;2571;-85
2021/05/02 01:50:10;;;;;;;;;;;6.40;99.90;;;5.28;100.00;94960.19;10364818;28;2101;-86
2021/05/02 01:55:12;;;;;;;;;;;7.40;99.90;;;5.30;100.00;94966.06;10398294;28;1990;-87
2021/05/02 02:00:14;;;;;;;;;;;6.30;99.90;;;5.22;100.00;94979.88;10405189;28;2464;-86
2021/05/02 02:05:17;;;;;;;;;;;7.40;99.90;;;5.11;100.00;94987.00;10375327;28;2630;-85
2021/05/02 02:10:25;;;;;;;;;;;7.20;99.90;;;5.04;99.80;94991.75;10376047;28;2470;-87
2021/05/02 02:15:31;;;;;;;;;;;6.10;99.90;;;4.98;99.34;94995.47;10365006;28;3015;-87
2021/05/02 02:20:36;;;;;;;;;;;6.10;99.90;;;4.99;100.00;95004.25;10362767;28;2497;-88
2021/05/02 02:25:39;;;;;;;;;;;7.10;99.90;;;5.02;100.00;95017.03;10385184;28;2514;-87
2021/05/02 02:30:41;;;;;;;;;;;7.00;99.90;;;4.89;99.97;95011.09;10367015;28;1926;-88
2021/05/02 02:35:43;;;;;;;;;;;7.10;99.90;;;4.87;100.00;95020.41;10358207;28;2483;-87
2021/05/02 02:40:47;;;;;;;;;;;5.90;99.90;;;4.74;98.87;95037.63;10370300;28;2467;-86
2021/05/02 02:45:50;;;;;;;;;;;6.30;99.90;;;4.79;100.00;95035.00;10365932;28;2108;-87
2021/05/02 02:50:52;;;;;;;;;;;5.70;99.90;;;4.78;100.00;95049.38;10401074;28;2409;-85
2021/05/02 02:55:58;;;;;;;;;;;5.80;99.90;;;4.76;100.00;95051.47;10380224;28;2061;-88
2021/05/02 03:01:00;;;;;;;;;;;6.10;99.90;;;4.72;100.00;95066.38;10370592;28;2443;-85
2021/05/02 03:06:06;;;;;;;;;;;5.90;99.90;;;4.64;100.00;95066.00;10374576;28;2459;-86
2021/05/02 03:11:10;;;;;;;;;;;5.70;99.90;;;4.67;100.00;95074.31;10388093;28;2638;-87
2021/05/02 03:16:16;;;;;;;;;;;6.90;99.90;;;4.73;100.00;95085.81;10389707;28;2757;-84
2021/05/02 03:21:22;;;;;;;;;;;5.70;99.90;;;4.47;99.63;95090.91;10393739;28;2478;-86
2021/05/02 03:26:28;;;;;;;;;;;5.50;99.90;;;4.41;99.70;95099.88;10392291;28;2439;-87
2021/05/02 03:31:30;;;;;;;;;;;5.70;99.90;;;4.30;99.63;95104.28;10387788;28;2462;-88
2021/05/02 03:36:34;;;;;;;;;;;6.90;99.90;;;4.31;100.00;95111.22;10410870;28;2417;-83
2021/05/02 03:41:40;;;;;;;;;;;6.80;99.90;;;4.25;99.80;95130.03;10382991;28;2518;-86
2021/05/02 03:46:42;;;;;;;;;;;5.20;99.90;;;4.18;100.00;95124.91;10397423;28;2555;-86
2021/05/02 03:51:47;;;;;;;;;;;7.60;99.90;;;4.15;99.67;95140.59;10380204;28;2416;-85
2021/05/02 03:56:51;;;;;;;;;;;6.00;99.90;;;4.17;100.00;95151.78;10407685;28;1892;-83
2021/05/02 04:01:54;;;;;;;;;;;6.30;99.90;;;4.12;100.00;95170.31;10380132;28;2410;-88
2021/05/02 04:06:58;;;;;;;;;;;6.70;99.90;;;4.19;100.00;95176.25;10385580;28;2320;-86
2021/05/02 04:12:01;;;;;;;;;;;6.30;99.90;;;4.17;100.00;95189.00;10390117;28;2335;-85
2021/05/02 04:17:19;;;;;;;;;;;6.80;99.90;;;4.14;100.00;95203.63;10376853;28;2161;-90
2021/05/02 04:22:22;;;;;;;;;;;5.20;99.90;;;4.11;99.71;95200.63;10390414;28;2258;-88
2021/05/02 04:27:25;;;;;;;;;;;7.00;99.90;;;4.05;99.45;95213.06;10399453;28;2347;-87
2021/05/02 04:32:31;;;;;;;;;;;6.20;99.90;;;4.13;99.31;95225.94;10384917;28;2517;-87
2021/05/02 04:37:35;;;;;;;;;;;5.50;99.90;;;4.10;99.83;95231.75;10369019;28;2399;-86
2021/05/02 04:42:45;;;;;;;;;;;5.00;99.90;;;4.01;99.17;95252.66;10369907;28;2473;-86
2021/05/02 04:47:51;;;;;;;;;;;6.20;99.90;;;3.89;98.28;95253.81;10363355;28;2312;-87
2021/05/02 04:52:55;;;;;;;;;;;5.90;99.90;;;4.01;99.22;95268.63;10386510;28;2252;-84
2021/05/02 04:58:01;;;;;;;;;;;6.00;99.90;;;4.11;99.49;95278.56;10356716;28;2342;-87
2021/05/02 05:03:03;;;;;;;;;;;5.00;99.90;;;3.89;98.28;95281.19;10386112;28;2410;-86
2021/05/02 05:08:05;;;;;;;;;;;6.50;99.90;;;3.90;98.44;95289.97;10381044;28;2201;-87
2021/05/02 05:13:07;;;;;;;;;;;5.90;99.90;;;3.89;97.76;95302.47;10377190;28;2319;-85
2021/05/02 05:18:08;;;;;;;;;;;5.00;99.90;;;4.03;98.98;95313.56;10387658;28;2371;-86
2021/05/02 05:23:10;;;;;;;;;;;5.00;99.90;;;3.94;98.38;95323.00;10379545;28;2260;-86
2021/05/02 05:28:12;;;;;;;;;;;5.90;99.90;;;3.95;98.85;95338.72;10393828;28;2268;-87
2021/05/02 05:33:14;;;;;;;;;;;6.40;99.90;;;3.90;98.06;95328.00;10348949;28;2343;-88
2021/05/02 05:38:16;;;;;;;;;;;5.50;99.90;;;3.83;97.36;95345.19;10342604;28;2435;-84
2021/05/02 05:43:18;;;;;;;;;;;6.20;99.90;;;3.85;97.40;95340.41;10361949;28;2906;-86
2021/05/02 05:48:20;;;;;;;;;;;6.60;99.90;;;3.94;98.39;95341.59;10365910;28;2666;-85
2021/05/02 05:53:22;;;;;;;;;;;6.40;99.90;;;3.86;98.22;95361.44;10382762;28;2222;-87
2021/05/02 05:58:26;;;;;;;;;;;5.50;99.90;;;3.78;98.12;95364.50;10366059;28;2718;-86
2021/05/02 06:03:28;;;;;;;;;;;4.80;99.90;;;3.73;97.85;95354.59;10362211;28;2281;-87
2021/05/02 06:08:30;;;;;;;;;;;5.60;99.90;;;3.78;98.34;95381.25;10368616;28;2454;-87
2021/05/02 06:13:32;;;;;;;;;;;5.30;99.90;;;3.82;97.72;95378.94;10358632;28;2421;-87
2021/05/02 06:18:33;;;;;;;;;;;4.90;99.90;;;3.88;98.24;95379.81;10406612;28;2403;-87
2021/05/02 06:23:35;;;;;;;;;;;5.80;99.90;;;3.91;96.98;95385.47;10391470;28;2385;-88
2021/05/02 06:28:37;;;;;;;;;;;6.00;99.90;;;4.01;96.92;95390.16;10378382;28;2249;-86
2021/05/02 06:33:40;;;;;;;;;;;6.40;99.90;;;4.27;98.23;95394.00;10399237;28;2006;-87
2021/05/02 06:38:42;;;;;;;;;;;5.20;99.90;;;4.27;97.83;95402.81;10384844;28;2336;-85
2021/05/02 06:43:44;;;;;;;;;;;5.90;99.90;;;4.32;97.75;95408.19;10365593;28;2750;-88
2021/05/02 06:48:46;;;;;;;;;;;5.80;99.90;;;4.31;98.25;95416.41;10368019;28;2586;-86
2021/05/02 06:53:48;;;;;;;;;;;5.80;99.90;;;4.50;98.23;95424.94;10371665;28;2659;-84
2021/05/02 06:58:49;;;;;;;;;;;6.30;99.90;;;4.48;98.80;95435.03;10376625;28;2336;-83
2021/05/02 07:03:51;;;;;;;;;;;5.50;99.90;;;4.34;98.75;95435.38;10395317;28;2225;-85
2021/05/02 07:09:06;;;;;;;;;;;6.70;99.90;;;4.51;100.00;95455.81;10397105;28;2014;-88
2021/05/02 07:14:08;;;;;;;;;;;5.50;99.90;;;4.57;99.31;95452.19;10369988;28;2511;-87
2021/05/02 07:19:10;;;;;;;;;;;5.60;99.90;;;4.38;98.40;95458.81;10383220;28;2315;-84
2021/05/02 07:24:12;;;;;;;;;;;5.50;99.90;;;4.59;99.10;95476.75;10389841;28;2388;-86
2021/05/02 07:29:14;;;;;;;;;;;5.60;99.90;;;4.71;98.01;95474.78;10363153;28;2260;-87
2021/05/02 07:34:16;;;;;;;;;;;5.60;99.90;;;4.76;98.15;95477.50;10367481;28;2332;-84
2021/05/02 07:39:17;;;;;;;;;;;5.70;99.90;;;4.85;98.48;95480.59;10377860;28;2219;-84
2021/05/02 07:44:26;;;;;;;;;;;6.50;99.90;;;5.06;97.46;95489.66;10381611;28;2240;-85
2021/05/02 07:49:28;;;;;;;;;;;5.90;99.90;;;5.15;96.49;95506.81;10359722;28;2249;-87
2021/05/02 07:54:30;;;;;;;;;;;6.00;99.90;;;4.99;95.35;95505.00;10350170;28;2174;-86
2021/05/02 07:59:31;;;;;;;;;;;6.00;99.90;;;5.13;94.35;95519.59;10362279;28;2339;-85
2021/05/02 08:04:37;;;;;;;;;;;6.10;99.90;;;5.02;94.76;95523.16;10367246;28;2320;-83
2021/05/02 08:09:39;;;;;;;;;;;6.10;99.90;;;4.96;95.83;95529.47;10386128;28;2205;-86
2021/05/02 08:14:42;;;;;;;;;;;6.90;99.90;;;4.98;96.00;95538.84;10374919;28;2821;-84
2021/05/02 08:19:44;;;;;;;;;;;6.00;99.90;;;5.04;94.86;95553.84;10379251;28;2253;-83
2021/05/02 08:24:46;;;;;;;;;;;7.00;99.90;;;5.22;94.42;95571.44;10354257;28;2446;-83
2021/05/02 08:29:48;;;;;;;;;;;6.10;99.90;;;5.28;92.50;95567.78;10368175;28;2346;-85
2021/05/02 08:34:50;;;;;;;;;;;6.60;99.90;;;5.11;91.64;95583.00;10385673;28;2347;-85
2021/05/02 08:39:52;;;;;;;;;;;6.20;99.90;;;5.28;91.34;95586.44;10376293;28;2331;-83
2021/05/02 08:44:54;;;;;;;;;;;6.20;99.90;;;5.24;94.00;95590.66;10356295;28;2356;-85
2021/05/02 08:49:56;;;;;;;;;;;6.20;99.90;;;5.61;92.03;95600.75;10367198;28;2082;-86
2021/05/02 08:54:58;;;;;;;;;;;6.40;99.90;;;5.42;91.60;95602.91;10361076;28;2468;-86
2021/05/02 09:00:00;;;;;;;;;;;7.80;99.90;;;5.72;92.62;95591.81;10376708;28;1911;-84
2021/05/02 09:10:58;;;;;;;;;;;8.00;99.90;;;5.37;93.11;95600.97;10207713;29;2154;-84
2021/05/02 09:16:00;;;;;;;;;;;7.70;99.90;;;5.44;92.72;95611.44;10216783;29;2496;-86
2021/05/02 09:21:02;;;;;;;;;;;6.40;99.90;;;6.11;94.54;95607.81;10256684;28;2431;-85
2021/05/02 09:26:05;;;;;;;;;;;8.30;99.90;;;5.94;90.58;95616.69;10281956;28;2292;-89
2021/05/02 09:31:06;;;;;;;;;;;6.90;99.90;;;5.96;91.90;95619.09;10400407;28;2415;-86
2021/05/02 09:36:08;;;;;;;;;;;6.90;99.90;;;5.84;90.08;95615.72;10356652;28;2284;-86
2021/05/02 09:41:10;;;;;;;;;;;6.90;99.90;;;5.66;90.89;95617.63;10370911;28;2331;-84
2021/05/02 09:46:24;;;;;;;;;;;8.00;99.90;;;5.59;93.02;95634.84;10353933;28;2399;-88
2021/05/02 09:51:27;;;;;;;;;;;8.00;99.90;;;5.18;93.18;95649.44;10349547;28;2615;-86
2021/05/02 09:56:28;;;;;;;;;;;6.40;99.90;;;5.28;93.53;95638.91;10350566;28;2443;-84
2021/05/02 10:01:30;;;;;;;;;;;6.40;99.90;;;5.58;92.51;95651.91;10375975;28;2327;-86
2021/05/02 10:06:33;;;;;;;;;;;6.50;99.90;;;5.60;92.25;95636.47;10363238;28;2725;-85
2021/05/02 10:11:35;;;;;;;;;;;6.60;99.90;;;5.71;91.76;95654.22;10353068;28;2422;-84
2021/05/02 10:16:37;;;;;;;;;;;6.60;99.90;;;5.82;91.38;95661.31;10377502;28;2362;-86
2021/05/02 10:21:39;;;;;;;;;;;6.70;99.90;;;6.38;89.96;95663.91;10344319;28;2520;-84
2021/05/02 10:26:41;;;;;;;;;;;7.10;99.90;;;6.28;88.26;95667.25;10350299;28;2466;-86
2021/05/02 10:31:43;;;;;;;;;;;8.70;99.90;;;6.32;86.65;95670.25;10370535;28;2645;-83
2021/05/02 10:36:45;;;;;;;;;;;7.20;99.90;;;6.29;87.83;95684.88;10377338;28;2495;-84
2021/05/02 10:41:47;;;;;;;;;;;7.30;99.90;;;6.16;89.10;95694.06;10376592;28;2362;-86
2021/05/02 10:46:50;;;;;;;;;;;7.80;99.90;;;5.72;90.17;95700.38;10380007;28;2424;-86
2021/05/02 10:51:53;;;;;;;;;;;7.30;99.90;;;5.88;92.12;95712.88;10415156;28;2676;-88
2021/05/02 10:56:54;;;;;;;;;;;7.10;99.90;;;5.91;90.37;95699.06;10391375;28;2741;-87
2021/05/02 11:01:56;;;;;;;;;;;7.00;99.90;;;6.48;90.91;95710.22;10375455;28;1908;-88
2021/05/02 11:06:58;;;;;;;;;;;7.70;99.90;;;7.00;85.58;95709.75;10380226;28;2399;-86
2021/05/02 11:12:01;;;;;;;;;;;8.70;99.90;;;7.35;85.37;95707.63;10376497;28;2225;-87
2021/05/02 11:17:06;;;;;;;;;;;9.20;99.90;;;7.26;83.37;95709.97;10376331;28;2312;-86
2021/05/02 11:22:17;;;;;;;;;;;9.50;99.90;;;7.41;80.55;95710.09;10385372;28;2853;-86
2021/05/02 11:27:48;;;;;;;;;;;10.00;99.90;;;7.73;79.41;95717.31;10398174;28;2650;-84
2021/05/02 11:39:11;;;;;;;;;;;9.90;99.90;;;9.28;78.13;95713.16;10123688;29;2543;-87
2021/05/02 11:50:14;;;;;;;;;;;9.90;99.90;;;7.90;82.53;95727.88;10377487;28;2257;-86
2021/05/02 11:55:21;;;;;;;;;;;9.70;99.90;;;7.80;84.38;95728.59;10369363;28;2387;-86
2021/05/02 12:00:35;;;;;;;;;;;8.90;99.90;;;7.67;81.47;95729.03;10376901;28;2319;-87
2021/05/02 12:06:00;;;;;;;;;;;10.70;99.90;;;8.39;82.83;95731.09;10383945;28;2321;-86
2021/05/02 12:16:59;;;;;;;;;;;;;;;;;;;;;
2021/05/02 12:28:50;;;;;;;;;;;10.20;99.90;;;10.06;74.52;95702.94;10378229;28;2700;-87
2021/05/02 12:40:47;;;;;;;;;;;10.90;99.90;;;9.98;71.02;95698.91;10223521;29;2594;-88
2021/05/02 12:51:33;;;;;;;;;;;11.20;99.90;;;10.79;68.48;95692.50;10238841;28;2277;-84
2021/05/02 12:56:42;;;;;;;;;;;11.80;99.90;;;11.44;66.33;95681.59;10329509;28;2278;-82
2021/05/02 13:01:44;;;;;;;;;;;11.90;99.90;;;10.80;64.54;95680.66;10365938;28;2383;-83
2021/05/02 13:06:46;;;;;;;;;;;12.00;99.90;;;11.57;63.57;95688.22;10353606;28;2336;-83
2021/05/02 13:11:48;;;;;;;;;;;12.10;99.90;;;11.84;62.05;95677.00;10365406;28;2439;-82
2021/05/02 13:16:50;;;;;;;;;;;12.40;99.90;;;12.25;60.56;95674.69;10369400;28;2535;-88
2021/05/02 13:28:29;;;;;;;;;;;12.60;99.90;;;11.37;58.71;95681.91;10216407;29;2441;-87
2021/05/02 13:51:25;;;;;;;;;;;11.70;99.90;;;10.59;59.14;95671.09;10376735;28;2379;-86
2021/05/02 13:56:31;;;;;;;;;;;11.70;99.90;;;10.89;57.89;95653.22;10367110;28;2729;-85
2021/05/02 14:01:32;;;;;;;;;;;11.80;99.90;;;11.50;53.60;95658.16;10376899;28;2371;-88
2021/05/02 14:06:35;;;;;;;;;;;12.50;99.90;;;11.85;51.57;95654.38;10400307;28;2326;-87
2021/05/02 14:11:37;;;;;;;;;;;12.60;99.90;;;12.22;54.54;95661.81;10371263;28;2209;-86
2021/05/02 14:16:39;;;;;;;;;;;13.00;99.90;;;12.30;52.03;95661.19;10404633;28;2422;-84
2021/05/02 14:21:41;;;;;;;;;;;13.20;99.90;;;12.68;52.42;95656.66;10382295;28;2356;-86
2021/05/02 14:26:44;;;;;;;;;;;13.30;99.90;;;12.92;50.32;95656.63;10370682;28;2306;-85
2021/05/02 14:31:46;;;;;;;;;;;13.80;99.90;;;12.55;51.55;95657.38;10366510;28;2512;-87
2021/05/02 14:36:48;;;;;;;;;;;13.70;99.90;;;12.05;51.05;95662.25;10371099;28;2346;-84
2021/05/02 14:41:50;;;;;;;;;;;13.30;99.90;;;11.42;51.61;95666.84;10381156;28;2415;-87
2021/05/02 14:46:52;;;;;;;;;;;12.90;99.90;;;11.36;51.90;95660.69;10377209;28;2330;-86
2021/05/02 14:51:54;;;;;;;;;;;12.60;99.90;;;11.27;53.02;95663.19;10395597;28;2292;-84
2021/05/02 14:56:59;;;;;;;;;;;12.40;99.90;;;10.46;53.62;95671.69;10394191;28;2775;-85
2021/05/02 15:02:03;;;;;;;;;;;12.00;99.90;;;10.33;55.83;95661.53;10368054;28;2581;-87
2021/05/02 15:07:06;;;;;;;;;;;11.50;99.90;;;10.46;55.28;95663.63;10377267;28;2293;-85
2021/05/02 15:12:08;;;;;;;;;;;11.40;99.90;;;10.38;52.15;95667.69;10380033;28;2570;-85
2021/05/02 15:17:11;;;;;;;;;;;11.50;99.90;;;10.29;51.65;95672.00;10372588;28;2368;-87
2021/05/02 15:22:14;;;;;;;;;;;11.40;99.90;;;10.47;50.68;95678.66;10375864;28;2431;-85
2021/05/02 15:27:17;;;;;;;;;;;11.30;98.80;;;9.78;57.31;95688.22;10403211;28;2438;-87
2021/05/02 15:32:19;;;;;;;;;;;11.10;99.90;;;9.63;58.75;95672.94;10383816;28;2276;-86
2021/05/02 15:37:24;;;;;;;;;;;10.80;99.90;;;9.91;57.42;95676.09;10417893;28;2438;-88
2021/05/02 15:42:29;;;;;;;;;;;10.80;99.90;;;9.58;59.50;95686.34;10390521;28;2371;-87
2021/05/02 15:47:32;;;;;;;;;;;10.70;99.90;;;10.06;58.88;95678.78;10378431;28;2360;-89
2021/05/02 15:52:35;;;;;;;;;;;10.90;99.90;;;10.63;55.99;95685.59;10416947;28;2498;-85
2021/05/02 15:57:38;;;;;;;;;;;11.40;99.90;;;10.43;53.92;95691.03;10383166;28;2229;-85
2021/05/02 16:02:41;;;;;;;;;;;11.50;99.90;;;10.53;57.71;95693.69;10412558;28;2328;-86
2021/05/02 16:07:44;;;;;;;;;;;11.40;99.90;;;10.53;54.85;95691.00;10379824;28;2410;-85
2021/05/02 16:12:51;;;;;;;;;;;11.60;99.90;;;10.72;56.86;95694.69;10373274;28;2657;-88
2021/05/02 16:18:03;;;;;;;;;;;11.60;99.90;;;10.63;56.26;95699.06;10400590;28;2434;-88
2021/05/02 16:23:14;;;;;;;;;;;11.70;99.90;;;10.07;58.71;95709.94;10411928;28;2328;-89
2021/05/02 16:28:17;;;;;;;;;;;11.30;99.90;;;7.53;68.91;95776.81;10376963;28;2742;-86
2021/05/02 16:33:20;;;;;;;;;;;9.90;99.90;;;5.94;79.55;95775.97;10382678;28;2356;-87
2021/05/02 16:38:23;;;;;;;;;;;9.10;99.90;;;5.39;82.97;95793.44;10375998;28;2354;-87
2021/05/02 16:43:25;;;;;;;;;;;7.90;99.90;;;5.30;84.57;95802.88;10384614;28;2509;-89
2021/05/02 16:48:28;;;;;;;;;;;7.40;99.90;;;5.18;87.01;95810.13;10386960;28;2341;-88
2021/05/02 16:53:40;;;;;;;;;;;7.50;99.90;;;5.05;87.38;95797.09;10390329;28;2355;-86
2021/05/02 17:05:27;;;;;;;;;;;7.50;99.90;;;4.95;90.90;95804.88;10312943;28;1887;-87
2021/05/02 18:23:18;;;;;;;;;;;6.70;99.90;;;5.15;90.34;95835.41;10707314;23;1981;-87
2021/05/02 18:28:29;;;;;;;;;;;8.20;99.90;;;5.05;91.19;95837.06;10395944;28;2391;-87
2021/05/02 18:33:41;;;;;;;;;;;;;;;;;;;;;
2021/05/02 18:44:24;;;;;;;;;;;7.20;99.90;;;4.72;91.80;95856.38;10421496;28;2650;-88
2021/05/02 18:49:28;;;;;;;;;;;7.10;99.90;;;4.69;91.52;95865.63;10424787;28;2481;-89
2021/05/02 18:54:33;;;;;;;;;;;7.10;99.90;;;4.61;91.77;95866.00;10428798;28;2553;-89
2021/05/02 19:00:09;;;;;;;;;;;7.30;99.90;;;4.54;92.16;95883.94;10437268;28;2098;-88
2021/05/02 19:05:13;;;;;;;;;;;7.00;99.90;;;4.43;92.37;95887.41;10427328;28;1954;-87
2021/05/02 19:21:41;;;;;;;;;;;7.10;99.90;;;4.40;93.04;95909.19;10379221;28;2291;-87
2021/05/02 19:26:44;;;;;;;;;;;5.60;99.90;;;4.31;92.87;95922.81;10406932;28;1953;-88
2021/05/02 19:31:52;;;;;;;;;;;6.60;99.90;;;4.32;93.43;95924.44;10400653;28;2316;-87
2021/05/02 19:36:57;;;;;;;;;;;6.20;99.90;;;4.31;93.75;95922.81;10386181;28;2328;-89
2021/05/02 19:42:00;;;;;;;;;;;5.50;99.90;;;4.33;93.47;95935.91;10386885;28;2766;-89
2021/05/02 19:47:10;;;;;;;;;;;5.90;99.90;;;4.30;93.70;95934.50;10385008;28;2320;-88
2021/05/02 20:04:51;;;;;;;;;;;5.50;99.90;;;4.27;93.47;95940.28;10219785;29;2260;-85
2021/05/02 20:34:04;;;;;;;;;;;6.10;99.90;;;4.31;92.74;95938.78;10163373;29;2536;-85
2021/05/02 21:14:03;;;;;;;;;;;6.20;99.90;;;4.20;91.16;95979.50;10161844;29;2294;-84
2021/05/02 21:19:21;;;;;;;;;;;5.40;99.90;;;4.18;91.41;95986.88;10224602;29;2369;-83
2021/05/02 21:36:34;;;;;;;;;;;6.30;99.90;;;4.34;91.23;96001.41;10058564;29;2425;-85
2021/05/02 21:41:46;;;;;;;;;;;5.40;99.90;;;4.48;90.94;96007.31;10148408;28;2422;-83
2021/05/02 21:47:07;;;;;;;;;;;5.50;99.90;;;4.63;89.84;96014.84;10210748;29;2475;-84
2021/05/02 21:52:32;;;;;;;;;;;5.60;99.90;;;4.69;89.89;96024.59;10210488;29;2514;-83
2021/05/02 21:57:43;;;;;;;;;;;5.70;99.90;;;4.65;88.90;96018.94;10213655;29;2316;-85
2021/05/02 22:02:50;;;;;;;;;;;5.70;99.90;;;4.61;89.45;96023.06;10231075;29;2427;-85
2021/05/02 22:07:57;;;;;;;;;;;6.40;99.90;;;4.68;88.67;96034.44;10359863;28;2410;-84
2021/05/02 22:13:26;;;;;;;;;;;5.90;99.90;;;4.66;88.91;96031.19;10357851;28;2298;-83
2021/05/02 22:19:07;;;;;;;;;;;6.50;99.90;;;4.61;88.65;96049.69;10392845;28;2427;-84
2021/05/02 22:24:16;;;;;;;;;;;5.70;99.90;;;4.56;89.07;96049.56;10390431;28;2153;-86
2021/05/02 22:29:32;;;;;;;;;;;6.90;99.90;;;4.46;89.32;96047.47;10374850;28;2355;-84
2021/05/02 22:34:34;;;;;;;;;;;5.60;99.90;;;4.45;89.26;96050.34;10378045;28;2380;-83
2021/05/02 22:39:36;;;;;;;;;;;6.80;99.90;;;4.41;89.82;96059.84;10398530;28;2366;-86
2021/05/02 22:44:48;;;;;;;;;;;5.60;99.90;;;4.44;89.29;96062.84;10379274;28;2369;-83
2021/05/02 22:49:58;;;;;;;;;;;5.50;99.90;;;4.51;89.54;96060.09;10394214;28;2394;-83
2021/05/02 22:55:05;;;;;;;;;;;7.00;99.90;;;4.63;88.23;96066.25;10387688;28;2520;-85
2021/05/02 23:00:07;;;;;;;;;;;6.40;99.90;;;4.64;88.54;96070.53;10389806;28;2336;-84
2021/05/02 23:05:14;;;;;;;;;;;7.00;99.90;;;4.65;87.85;96066.84;10406231;28;2344;-84
2021/05/02 23:10:31;;;;;;;;;;;7.20;99.90;;;4.63;87.47;96060.13;10403411;28;2298;-82
2021/05/02 23:15:45;;;;;;;;;;;6.90;99.90;;;4.61;86.83;96066.50;10386928;28;2451;-83
2021/05/02 23:20:57;;;;;;;;;;;5.80;99.90;;;4.60;87.53;96069.38;10398502;28;2377;-85
2021/05/02 23:26:03;;;;;;;;;;;5.80;99.90;;;4.63;87.91;96068.91;10383376;28;2463;-84
2021/05/02 23:31:12;;;;;;;;;;;6.90;99.90;;;4.64;86.91;96075.84;10376745;28;2365;-85
2021/05/02 23:36:31;;;;;;;;;;;6.70;99.90;;;4.64;86.85;96075.84;10381259;28;2239;-85
2021/05/02 23:41:50;;;;;;;;;;;6.40;99.90;;;4.69;86.27;96076.00;10378583;28;2462;-84
2021/05/02 23:47:09;;;;;;;;;;;6.50;99.90;;;4.73;86.20;96077.16;10384747;28;2320;-86
2021/05/02 23:52:34;;;;;;;;;;;6.30;99.90;;;4.80;85.67;96075.22;10387825;28;2328;-83
2021/05/02 23:57:44;;;;;;;;;;;5.80;99.90;;;4.84;84.67;96080.91;10403143;28;1887;-83
